createdAt,value
2023-03-26T00:03:48.563Z,99996.31
2023-03-26T00:07:21.071Z,99994.47
2023-03-26T00:10:53.992Z,99987.22
2023-03-26T00:14:24.606Z,99986.03
2023-03-26T00:17:49.614Z,99987.94
2023-03-26T00:21:30.694Z,99988.09
2023-03-26T00:25:08.384Z,99991.44
2023-03-26T00:28:42.856Z,99999.25
2023-03-26T00:32:17.365Z,99992.34
2023-03-26T00:35:47.965Z,99996.47
2023-03-26T00:39:06.351Z,100000.37
2023-03-26T00:42:26.740Z,99993.06
2023-03-26T00:45:55.112Z,99987.63
2023-03-26T00:49:27.800Z,99991.81
2023-03-26T00:52:46.384Z,99975.72
2023-03-26T00:56:22.397Z,99979.25
2023-03-26T00:59:49.758Z,99976.03
2023-03-26T01:03:07.614Z,99974.06
2023-03-26T01:06:41.374Z,99969.53
2023-03-26T01:10:15.728Z,99971.41
2023-03-26T01:14:14.682Z,99969.81
2023-03-26T01:17:52.325Z,99976.13
2023-03-26T01:21:10.064Z,99972.94
2023-03-26T01:24:46.670Z,99977.16
2023-03-26T01:28:12.683Z,99971.16
2023-03-26T01:31:37.974Z,99968.84
2023-03-26T01:35:25.672Z,99972.28
2023-03-26T01:42:52.019Z,99959.62
2023-03-26T01:46:36.441Z,99973.19
2023-03-26T01:50:03.467Z,99970.00
2023-03-26T01:53:22.986Z,99970.47
2023-03-26T01:57:08.574Z,99965.94
2023-03-26T02:00:56.832Z,99965.63
2023-03-26T02:04:39.598Z,99971.91
2023-03-26T02:08:36.034Z,99970.56
2023-03-26T02:12:12.458Z,99978.78
2023-03-26T02:15:58.684Z,99971.13
2023-03-26T02:19:32.511Z,99982.66
2023-03-26T02:22:48.574Z,99978.66
2023-03-26T02:26:20.887Z,99973.47
2023-03-26T02:29:44.094Z,99977.69
2023-03-26T02:33:08.488Z,99971.63
2023-03-26T02:36:36.161Z,99965.97
2023-03-26T02:40:07.010Z,99965.06
2023-03-26T02:43:44.303Z,99965.38
2023-03-26T02:47:12.388Z,99959.09
2023-03-26T02:50:39.686Z,99950.94
2023-03-26T02:54:17.253Z,99959.72
2023-03-26T02:57:51.608Z,99949.38
2023-03-26T03:01:25.112Z,99952.53
2023-03-26T03:05:08.594Z,99947.91
2023-03-26T03:08:46.284Z,99955.84
2023-03-26T03:12:23.601Z,99962.84
2023-03-26T03:16:01.635Z,99962.63
2023-03-26T03:19:19.985Z,99951.78
2023-03-26T03:22:37.621Z,99950.66
2023-03-26T03:26:06.941Z,99952.03
2023-03-26T03:29:31.113Z,99963.69
2023-03-26T03:32:58.708Z,99968.06
2023-03-26T03:36:33.494Z,99967.78
2023-03-26T03:40:07.655Z,99957.75
2023-03-26T03:43:36.107Z,99957.16
2023-03-26T03:47:00.839Z,99957.72
2023-03-26T03:50:25.358Z,99961.47
2023-03-26T03:53:56.051Z,99983.50
2023-03-26T03:57:26.057Z,99982.31
2023-03-26T04:01:05.354Z,99989.28
2023-03-26T04:04:37.827Z,99979.75
2023-03-26T04:07:54.833Z,99990.44
2023-03-26T04:11:22.876Z,99989.72
2023-03-26T04:14:49.401Z,99993.00
2023-03-26T04:18:17.788Z,99993.75
2023-03-26T04:22:02.713Z,99982.41
2023-03-26T04:25:37.830Z,99986.56
2023-03-26T04:29:18.175Z,99993.41
2023-03-26T04:32:47.406Z,99987.22
2023-03-26T04:36:07.513Z,99980.88
2023-03-26T04:39:39.141Z,99983.94
2023-03-26T04:43:06.605Z,99981.97
2023-03-26T04:46:30.509Z,99981.62
2023-03-26T04:49:57.432Z,99983.09
2023-03-26T04:53:26.921Z,99990.62
2023-03-26T04:57:02.061Z,99990.25
2023-03-26T05:00:43.404Z,99987.72
2023-03-26T05:04:20.174Z,99989.44
2023-03-26T05:07:47.144Z,99987.72
2023-03-26T05:11:19.872Z,99982.62
2023-03-26T05:14:53.809Z,99977.50
2023-03-26T05:18:12.863Z,99980.75
2023-03-26T05:21:45.332Z,99986.75
2023-03-26T05:25:23.788Z,99986.97
2023-03-26T05:28:52.869Z,99993.84
2023-03-26T05:32:07.338Z,99997.41
2023-03-26T05:35:34.869Z,99992.00
2023-03-26T05:39:14.613Z,99989.50
2023-03-26T05:42:51.475Z,100000.03
2023-03-26T05:54:55.344Z,99993.50
2023-03-26T06:02:16.528Z,99991.63
2023-03-26T06:05:45.880Z,99986.28
2023-03-26T06:09:12.290Z,99985.63
2023-03-26T06:12:50.685Z,99987.47
2023-03-26T06:16:27.168Z,99974.19
2023-03-26T06:20:09.397Z,99978.53
2023-03-26T06:23:49.148Z,99966.88
2023-03-26T06:27:39.522Z,99963.47
2023-03-26T06:31:07.470Z,99966.47
2023-03-26T06:34:48.045Z,99968.81
2023-03-26T06:38:18.096Z,99976.06
2023-03-26T06:41:47.273Z,99970.91
2023-03-26T06:45:22.007Z,99979.22
2023-03-26T06:48:49.403Z,99978.09
2023-03-26T06:52:23.859Z,99980.91
2023-03-26T06:56:03.285Z,99979.91
2023-03-26T06:59:41.729Z,99982.41
2023-03-26T07:03:11.908Z,99989.00
2023-03-26T07:07:13.521Z,99988.59
2023-03-26T07:10:33.714Z,99988.34
2023-03-26T07:14:04.508Z,99987.59
2023-03-26T07:17:41.818Z,99988.25
2023-03-26T07:21:19.979Z,99994.53
2023-03-26T07:24:23.053Z,99987.66
2023-03-26T07:27:57.656Z,99987.44
2023-03-26T07:31:47.335Z,99989.22
2023-03-26T07:35:24.307Z,99991.81
2023-03-26T07:39:17.164Z,99990.78
2023-03-26T07:43:27.674Z,99993.53
2023-03-26T07:47:37.599Z,99995.41
2023-03-26T07:51:15.621Z,99992.50
2023-03-26T07:54:52.626Z,99995.69
2023-03-26T07:58:57.158Z,99987.16
2023-03-26T08:03:06.276Z,99990.94
2023-03-26T08:06:36.903Z,99990.94
2023-03-26T08:10:27.375Z,99979.81
2023-03-26T08:13:57.881Z,99988.28
2023-03-26T08:17:54.940Z,99981.13
2023-03-26T08:21:45.656Z,99981.94
2023-03-26T08:25:37.869Z,99963.78
2023-03-26T08:29:15.436Z,99970.72
2023-03-26T08:32:25.660Z,99964.41
2023-03-26T08:35:31.187Z,99966.25
2023-03-26T08:39:09.308Z,99971.09
2023-03-26T08:43:02.163Z,99952.31
2023-03-26T08:46:16.286Z,99959.94
2023-03-26T08:50:22.751Z,99954.53
2023-03-26T08:54:45.737Z,99950.75
2023-03-26T09:02:25.318Z,99947.03
2023-03-26T09:06:25.273Z,99937.44
2023-03-26T09:09:38.216Z,99942.03
2023-03-26T09:21:06.095Z,99924.72
2023-03-26T09:25:17.443Z,99918.50
2023-03-26T09:29:20.244Z,99916.31
2023-03-26T09:33:54.706Z,99919.06
2023-03-26T09:38:02.721Z,99910.69
2023-03-26T09:46:26.778Z,99900.31
2023-03-26T09:54:05.186Z,99879.81
2023-03-26T09:57:54.777Z,99876.38
2023-03-26T10:02:00.605Z,99869.56
2023-03-26T10:05:55.095Z,99876.94
2023-03-26T10:09:57.487Z,99870.84
2023-03-26T10:13:29.998Z,99851.88
2023-03-26T10:17:37.839Z,99853.38
2023-03-26T10:32:44.245Z,99850.69
2023-03-26T10:40:22.550Z,99850.06
2023-03-26T10:43:49.779Z,99850.09
2023-03-26T10:47:25.403Z,99830.16
2023-03-26T10:51:07.893Z,99821.50
2023-03-26T10:55:05.495Z,99813.69
2023-03-26T10:58:48.799Z,99799.88
2023-03-26T11:02:19.076Z,99809.03
2023-03-26T11:06:16.423Z,99791.25
2023-03-26T11:09:37.783Z,99793.81
2023-03-26T11:12:51.194Z,99777.81
2023-03-26T11:16:04.587Z,99766.16
2023-03-26T11:19:17.248Z,99766.34
2023-03-26T11:22:56.956Z,99759.03
2023-03-26T11:26:55.545Z,99766.56
2023-03-26T11:30:21.119Z,99753.66
2023-03-26T11:33:38.609Z,99752.09
2023-03-26T11:37:23.734Z,99732.69
2023-03-26T11:40:44.858Z,99726.44
2023-03-26T11:44:09.014Z,99700.25
2023-03-26T11:47:31.277Z,99701.63
2023-03-26T11:50:39.040Z,99695.50
2023-03-26T11:53:54.664Z,99698.16
2023-03-26T11:57:04.905Z,99695.03
2023-03-26T12:00:28.950Z,99679.84
2023-03-26T12:03:31.982Z,99680.44
2023-03-26T12:06:35.090Z,99664.41
2023-03-26T12:10:17.847Z,99662.88
2023-03-26T12:13:37.714Z,99644.75
2023-03-26T12:17:03.745Z,99640.53
2023-03-26T12:20:36.048Z,99629.13
2023-03-26T12:23:43.716Z,99616.22
2023-03-26T12:27:21.857Z,99626.84
2023-03-26T12:30:35.492Z,99619.25
2023-03-26T12:33:39.125Z,99612.75
2023-03-26T12:36:49.524Z,99591.28
2023-03-26T12:40:16.069Z,99599.72
2023-03-26T12:44:54.131Z,99592.03
2023-03-26T12:47:58.452Z,99583.69
2023-03-26T12:51:03.930Z,99565.00
2023-03-26T12:54:31.476Z,99558.44
2023-03-26T12:57:48.666Z,99556.16
2023-03-26T13:01:16.783Z,99557.78
2023-03-26T13:05:15.115Z,99551.63
2023-03-26T13:20:53.921Z,99523.38
2023-03-26T13:28:52.993Z,99511.16
2023-03-26T13:32:23.307Z,99492.75
2023-03-26T13:36:05.993Z,99490.50
2023-03-26T13:39:27.560Z,99494.25
2023-03-26T13:43:01.532Z,99483.53
2023-03-26T13:46:30.664Z,99472.38
2023-03-26T13:50:06.755Z,99471.75
2023-03-26T13:53:27.752Z,99467.03
2023-03-26T13:57:01.179Z,99462.00
2023-03-26T14:01:04.477Z,99454.13
2023-03-26T14:04:32.307Z,99452.09
2023-03-26T14:08:25.945Z,99444.41
2023-03-26T14:11:58.129Z,99433.44
2023-03-26T14:15:19.029Z,99422.78
2023-03-26T14:19:12.438Z,99421.50
2023-03-26T14:22:52.108Z,99423.78
2023-03-26T14:26:11.948Z,99417.97
2023-03-26T14:29:56.589Z,99416.69
2023-03-26T14:33:53.043Z,99409.62
2023-03-26T14:37:11.850Z,99404.81
2023-03-26T14:40:29.192Z,99398.00
2023-03-26T14:44:47.880Z,99398.84
2023-03-26T14:48:30.108Z,99392.69
2023-03-26T14:52:03.016Z,99384.75
2023-03-26T14:55:22.992Z,99379.41
2023-03-26T14:58:29.475Z,99378.41
2023-03-26T15:02:06.148Z,99383.94
2023-03-26T15:05:21.471Z,99370.53
2023-03-26T15:08:46.169Z,99362.88
2023-03-26T15:12:42.683Z,99345.94
2023-03-26T15:15:54.098Z,99342.16
2023-03-26T15:19:14.073Z,99342.09
2023-03-26T15:22:44.377Z,99334.00
2023-03-26T15:26:07.817Z,99328.28
2023-03-26T15:29:57.559Z,99328.13
2023-03-26T15:33:41.424Z,99327.25
2023-03-26T15:37:18.752Z,99320.47
2023-03-26T15:40:43.287Z,99321.88
2023-03-26T15:44:24.428Z,99323.31
2023-03-26T15:47:43.670Z,99322.53
2023-03-26T15:51:07.904Z,99323.78
2023-03-26T15:55:04.175Z,99313.56
2023-03-26T15:58:36.247Z,99316.81
2023-03-26T16:02:12.231Z,99312.06
2023-03-26T16:05:42.996Z,99306.41
2023-03-26T16:09:11.645Z,99293.53
2023-03-26T16:12:31.190Z,99290.22
2023-03-26T16:16:07.158Z,99284.97
2023-03-26T16:19:21.947Z,99279.78
2023-03-26T16:22:59.836Z,99275.91
2023-03-26T16:26:05.997Z,99254.31
2023-03-26T16:29:20.088Z,99249.75
2023-03-26T16:32:28.929Z,99242.53
2023-03-26T16:36:06.608Z,99241.53
2023-03-26T16:39:37.690Z,99240.31
2023-03-26T16:43:04.843Z,99235.84
2023-03-26T16:46:37.453Z,99235.84
2023-03-26T16:49:46.152Z,99233.66
2023-03-26T16:53:21.774Z,99237.03
2023-03-26T16:56:54.793Z,99247.59
2023-03-26T17:00:30.593Z,99238.34
2023-03-26T17:03:43.629Z,99248.41
2023-03-26T17:07:06.469Z,99248.28
2023-03-26T17:10:33.024Z,99246.59
2023-03-26T17:14:44.357Z,99252.13
2023-03-26T17:34:36.112Z,99242.34
2023-03-26T17:39:05.278Z,99238.78
2023-03-26T17:42:33.609Z,99237.19
2023-03-26T17:46:49.366Z,99228.72
2023-03-26T17:50:50.948Z,99238.78
2023-03-26T17:55:00.872Z,99238.50
2023-03-26T18:03:40.906Z,99236.16
2023-03-26T18:08:54.754Z,99238.09
2023-03-26T18:33:43.827Z,99227.78
2023-03-26T18:37:41.841Z,99224.22
2023-03-26T18:41:06.576Z,99221.63
2023-03-26T18:44:53.193Z,99218.47
2023-03-26T18:48:01.334Z,99206.84
2023-03-26T18:51:27.522Z,99201.06
2023-03-26T18:54:59.336Z,99196.31
2023-03-26T18:58:51.372Z,99198.97
2023-03-26T19:02:17.664Z,99185.75
2023-03-26T19:06:00.106Z,99185.44
2023-03-26T19:09:35.669Z,99183.63
2023-03-26T19:13:33.162Z,99179.31
2023-03-26T19:17:11.995Z,99167.22
2023-03-26T19:20:44.840Z,99167.72
2023-03-26T19:24:18.254Z,99159.78
2023-03-26T19:27:32.984Z,99153.53
2023-03-26T19:31:31.863Z,99151.97
2023-03-26T19:35:01.926Z,99150.97
2023-03-26T19:38:30.253Z,99145.66
2023-03-26T19:41:58.311Z,99129.94
2023-03-26T19:45:24.012Z,99130.88
2023-03-26T19:48:54.941Z,99122.97
2023-03-26T19:56:32.118Z,99100.91
2023-03-26T20:00:00.433Z,99093.75
2023-03-26T20:03:35.700Z,99094.47
2023-03-26T20:07:01.547Z,99092.34
2023-03-26T20:10:33.001Z,99076.56
2023-03-26T20:14:08.205Z,99066.59
2023-03-26T20:17:43.247Z,99059.03
2023-03-26T20:21:13.750Z,99056.13
2023-03-26T20:28:26.180Z,99037.16
2023-03-26T20:31:52.525Z,99020.84
2023-03-26T20:35:36.226Z,99006.28
2023-03-26T20:38:57.439Z,99000.06
2023-03-26T20:42:31.051Z,98995.75
2023-03-26T20:45:58.838Z,98992.75
2023-03-26T20:49:29.538Z,98998.69
2023-03-26T20:53:16.403Z,98989.75
2023-03-26T20:56:41.635Z,98993.63
2023-03-26T21:00:22.982Z,98997.50
2023-03-26T21:03:51.155Z,98991.97
2023-03-26T21:07:18.411Z,98987.19
2023-03-26T21:11:02.170Z,98993.78
2023-03-26T21:14:40.082Z,98988.25
2023-03-26T21:18:04.205Z,98995.94
2023-03-26T21:22:12.946Z,99002.22
2023-03-26T21:25:37.551Z,99002.03
2023-03-26T21:28:54.899Z,99000.44
2023-03-26T21:32:12.809Z,98997.38
2023-03-26T21:35:40.137Z,98996.00
2023-03-26T21:39:00.232Z,99005.34
2023-03-26T21:42:38.363Z,99033.09
2023-03-26T21:46:14.663Z,99023.34
2023-03-26T21:49:40.041Z,99020.47
2023-03-26T21:53:17.579Z,99025.09
2023-03-26T21:57:04.802Z,99030.16
2023-03-26T22:01:18.112Z,99034.88
2023-03-26T22:05:19.885Z,99036.78
2023-03-26T22:08:39.566Z,99051.38
2023-03-26T22:12:10.555Z,99046.69
2023-03-26T22:15:39.103Z,99050.03
2023-03-26T22:19:03.452Z,99036.91
2023-03-26T22:22:33.447Z,99027.47
2023-03-26T22:26:00.651Z,99030.72
2023-03-26T22:29:18.262Z,99024.69
2023-03-26T22:32:43.595Z,99026.59
2023-03-26T22:36:05.783Z,99020.84
2023-03-26T22:39:33.374Z,99008.47
2023-03-26T22:42:49.092Z,99011.69
2023-03-26T22:46:19.292Z,99005.09
2023-03-26T22:53:22.323Z,98993.78
2023-03-26T22:56:49.464Z,98983.78
2023-03-26T23:00:16.910Z,98983.78
2023-03-26T23:03:35.322Z,98982.75
2023-03-26T23:06:55.410Z,98966.94
2023-03-26T23:10:36.822Z,98974.28
2023-03-26T23:25:17.854Z,98970.34
2023-03-26T23:28:41.227Z,98961.91
2023-03-26T23:35:45.406Z,98952.16
2023-03-26T23:39:11.342Z,98947.69
2023-03-26T23:42:44.527Z,98938.72
2023-03-26T23:46:24.273Z,98930.28
2023-03-26T23:49:45.024Z,98921.06
2023-03-26T23:53:12.124Z,98913.91
2023-03-26T23:56:40.533Z,98895.44
